Energy Center, Louisiana
Current Conditions -  °F | °C
As of 9:53 AM on Friday 31 Oct 2014 (Local Time) from KLFT Reporting Station
Clear Clear  
Wind Chill: 67°   Ceiling: Unl
Heat Index: 67°   Visibility: 10mi
Dew Point: 46°   Wind: 13mph
Humidity: 47%   Direction: 360°N
Pressure: 30.11"   Gusts: NA
Location:  30.2247°N, 92.0198°W
Report Text: KLFT 311453Z 36011KT 10SM CLR 19/08 A3011 RMK AO2 SLP195 T01940078 51012
Loading
Personal Weather Stations






























Interactive Weather Map New forecast layout! Learn more

10-Day Weather Forecast

Advertisements
Track Severe Weather on mobile